首页
METAR-TAF:

METAR-TAF

机场 :

Roswell International Air Center

羅斯維爾, 新墨西哥州, 美国

纬度: 33-18-29N, 经度: 104-30-28W, 海拔: 1118米

当前天气观测

该预报发布于1小时和8分钟前的00:51 UTC
风速16节,风向南转南东,有时为20节阵风
温度 36°C
湿度 17%
气压 1014 hPa
能見度: 16.1公里
天空无云

METAR: KROW 130051Z 16016G20KT 10SM CLR 36/07 A2994 RMK AO2 SLP063 T03610067

时间: 19:59 (01:59 UTC)

预报

该预报发布于2小时和32分钟前的23:27 UTC
预报有效从13日的 00点(UTC)到 13日的 24点(UTC)
风速9节,风向
能見度: 10公里
少量云层高于15000英尺
从 13日的 0200点(UTC)
风速6节,风向
能見度: 10公里
少量云层高于20000英尺
从 13日的 1800点(UTC)
风速9节,风向东南
能見度: 10公里
天空无云

TAF: KROW 122327Z 1300/1324 19009KT P6SM FEW150 FM130200 17006KT P6SM FEW200 FM131800 14009KT P6SM SKC

超过4000个机场的气象观测和天气预报(METAR&TAF报告)。

可查询的气象台以黄色和红色小点在地图上表示。

将鼠标移到小点上方,可查看气象台名称。

然后点击查看天气观测和预报。

如需切换地图:点击带黑十字的绿色按钮放大地图;点击带横线的绿色按钮缩小地图;或者点击绿色箭头查看邻近地区的地图。


METAR-TAF: